sensor_id;sensor_type;location;lat;lon;timestamp;P1;durP1;ratioP1;P2;durP2;ratioP2
3527;SDS011;1778;47.966;7.854;2022-10-16T00:00:41;4.10;;;4.00;;
3527;SDS011;1778;47.966;7.854;2022-10-16T00:01:43;4.17;;;4.07;;
3527;SDS011;1778;47.966;7.854;2022-10-16T00:02:44;4.47;;;4.37;;
3527;SDS011;1778;47.966;7.854;2022-10-16T00:03:47;4.40;;;4.30;;
3527;SDS011;1778;47.966;7.854;2022-10-16T00:04:49;4.40;;;4.30;;
3527;SDS011;1778;47.966;7.854;2022-10-16T00:05:51;4.37;;;4.27;;
3527;SDS011;1778;47.966;7.854;2022-10-16T00:06:53;3.83;;;3.83;;
3527;SDS011;1778;47.966;7.854;2022-10-16T00:07:55;4.27;;;4.17;;
3527;SDS011;1778;47.966;7.854;2022-10-16T00:08:56;4.40;;;4.30;;
3527;SDS011;1778;47.966;7.854;2022-10-16T00:09:58;4.17;;;4.07;;
3527;SDS011;1778;47.966;7.854;2022-10-16T00:11:03;4.23;;;4.13;;
3527;SDS011;1778;47.966;7.854;2022-10-16T00:12:13;4.17;;;4.07;;
3527;SDS011;1778;47.966;7.854;2022-10-16T00:13:14;4.60;;;4.50;;
3527;SDS011;1778;47.966;7.854;2022-10-16T00:14:18;4.30;;;4.20;;
3527;SDS011;1778;47.966;7.854;2022-10-16T00:15:19;4.47;;;4.37;;
3527;SDS011;1778;47.966;7.854;2022-10-16T00:16:21;4.40;;;4.30;;
3527;SDS011;1778;47.966;7.854;2022-10-16T00:17:23;3.83;;;3.83;;
3527;SDS011;1778;47.966;7.854;2022-10-16T00:18:25;4.33;;;4.23;;
3527;SDS011;1778;47.966;7.854;2022-10-16T00:19:27;3.90;;;3.87;;
3527;SDS011;1778;47.966;7.854;2022-10-16T00:20:29;3.87;;;3.87;;
3527;SDS011;1778;47.966;7.854;2022-10-16T00:21:51;3.70;;;3.70;;
3527;SDS011;1778;47.966;7.854;2022-10-16T00:23:11;3.90;;;3.90;;
3527;SDS011;1778;47.966;7.854;2022-10-16T00:24:12;4.23;;;4.13;;
3527;SDS011;1778;47.966;7.854;2022-10-16T00:25:14;3.90;;;3.90;;
3527;SDS011;1778;47.966;7.854;2022-10-16T00:26:16;4.10;;;4.03;;
3527;SDS011;1778;47.966;7.854;2022-10-16T00:27:19;4.13;;;4.03;;
3527;SDS011;1778;47.966;7.854;2022-10-16T00:28:21;4.10;;;4.00;;
3527;SDS011;1778;47.966;7.854;2022-10-16T00:29:22;4.23;;;4.13;;
3527;SDS011;1778;47.966;7.854;2022-10-16T00:30:24;4.03;;;4.00;;
3527;SDS011;1778;47.966;7.854;2022-10-16T00:31:28;3.77;;;3.77;;
3527;SDS011;1778;47.966;7.854;2022-10-16T00:32:30;4.33;;;4.23;;
3527;SDS011;1778;47.966;7.854;2022-10-16T00:33:32;4.47;;;4.37;;
3527;SDS011;1778;47.966;7.854;2022-10-16T00:34:34;4.53;;;4.43;;
3527;SDS011;1778;47.966;7.854;2022-10-16T00:35:36;4.67;;;4.57;;
3527;SDS011;1778;47.966;7.854;2022-10-16T00:36:37;4.40;;;4.30;;
3527;SDS011;1778;47.966;7.854;2022-10-16T00:37:39;4.50;;;4.40;;
3527;SDS011;1778;47.966;7.854;2022-10-16T00:38:41;4.30;;;4.20;;
3527;SDS011;1778;47.966;7.854;2022-10-16T00:39:42;4.43;;;4.33;;
3527;SDS011;1778;47.966;7.854;2022-10-16T00:40:44;4.17;;;4.07;;
3527;SDS011;1778;47.966;7.854;2022-10-16T00:41:45;4.50;;;4.40;;
3527;SDS011;1778;47.966;7.854;2022-10-16T00:42:47;4.87;;;4.77;;
3527;SDS011;1778;47.966;7.854;2022-10-16T00:45:58;4.47;;;4.37;;
3527;SDS011;1778;47.966;7.854;2022-10-16T00:47:00;4.97;;;4.87;;
3527;SDS011;1778;47.966;7.854;2022-10-16T00:48:01;4.27;;;4.17;;
3527;SDS011;1778;47.966;7.854;2022-10-16T00:49:07;4.70;;;4.60;;
3527;SDS011;1778;47.966;7.854;2022-10-16T00:51:31;4.63;;;4.53;;
3527;SDS011;1778;47.966;7.854;2022-10-16T00:52:46;4.50;;;4.40;;
3527;SDS011;1778;47.966;7.854;2022-10-16T00:53:49;4.37;;;4.27;;
3527;SDS011;1778;47.966;7.854;2022-10-16T00:54:51;4.77;;;4.67;;
3527;SDS011;1778;47.966;7.854;2022-10-16T00:55:54;4.73;;;4.63;;
3527;SDS011;1778;47.966;7.854;2022-10-16T00:56:57;4.40;;;4.30;;
3527;SDS011;1778;47.966;7.854;2022-10-16T00:58:02;4.43;;;4.33;;
3527;SDS011;1778;47.966;7.854;2022-10-16T00:59:06;4.10;;;4.00;;
3527;SDS011;1778;47.966;7.854;2022-10-16T01:00:17;4.10;;;4.00;;
3527;SDS011;1778;47.966;7.854;2022-10-16T01:01:22;3.90;;;3.90;;
3527;SDS011;1778;47.966;7.854;2022-10-16T01:02:23;4.10;;;4.07;;
3527;SDS011;1778;47.966;7.854;2022-10-16T01:03:27;4.40;;;4.30;;
3527;SDS011;1778;47.966;7.854;2022-10-16T01:04:38;4.10;;;4.00;;
3527;SDS011;1778;47.966;7.854;2022-10-16T01:05:44;3.90;;;3.90;;
3527;SDS011;1778;47.966;7.854;2022-10-16T01:08:26;4.37;;;4.27;;
3527;SDS011;1778;47.966;7.854;2022-10-16T01:13:53;4.47;;;4.37;;
3527;SDS011;1778;47.966;7.854;2022-10-16T01:14:59;3.93;;;3.93;;
3527;SDS011;1778;47.966;7.854;2022-10-16T01:16:05;4.90;;;4.80;;
3527;SDS011;1778;47.966;7.854;2022-10-16T01:19:09;4.57;;;4.47;;
3527;SDS011;1778;47.966;7.854;2022-10-16T01:20:21;4.23;;;4.13;;
3527;SDS011;1778;47.966;7.854;2022-10-16T01:21:27;4.40;;;4.30;;
3527;SDS011;1778;47.966;7.854;2022-10-16T01:22:39;4.23;;;4.13;;
3527;SDS011;1778;47.966;7.854;2022-10-16T01:24:15;4.50;;;4.40;;
3527;SDS011;1778;47.966;7.854;2022-10-16T01:27:08;4.30;;;4.20;;
3527;SDS011;1778;47.966;7.854;2022-10-16T01:28:30;4.63;;;4.53;;
3527;SDS011;1778;47.966;7.854;2022-10-16T01:31:15;4.97;;;4.87;;
3527;SDS011;1778;47.966;7.854;2022-10-16T01:33:47;4.47;;;4.37;;
3527;SDS011;1778;47.966;7.854;2022-10-16T01:35:02;4.80;;;4.70;;
3527;SDS011;1778;47.966;7.854;2022-10-16T01:36:23;4.43;;;4.33;;
3527;SDS011;1778;47.966;7.854;2022-10-16T01:37:36;5.00;;;4.90;;
3527;SDS011;1778;47.966;7.854;2022-10-16T01:38:43;4.40;;;4.30;;
3527;SDS011;1778;47.966;7.854;2022-10-16T01:39:48;4.23;;;4.13;;
3527;SDS011;1778;47.966;7.854;2022-10-16T01:40:52;4.40;;;4.30;;
3527;SDS011;1778;47.966;7.854;2022-10-16T01:42:10;4.10;;;4.00;;
3527;SDS011;1778;47.966;7.854;2022-10-16T01:43:17;4.43;;;4.33;;
3527;SDS011;1778;47.966;7.854;2022-10-16T01:44:23;4.70;;;4.60;;
3527;SDS011;1778;47.966;7.854;2022-10-16T01:45:28;4.47;;;4.37;;
3527;SDS011;1778;47.966;7.854;2022-10-16T01:46:32;4.40;;;4.30;;
3527;SDS011;1778;47.966;7.854;2022-10-16T01:47:36;4.20;;;4.10;;
3527;SDS011;1778;47.966;7.854;2022-10-16T01:48:38;4.43;;;4.33;;
3527;SDS011;1778;47.966;7.854;2022-10-16T01:49:41;4.43;;;4.33;;
3527;SDS011;1778;47.966;7.854;2022-10-16T01:50:48;4.73;;;4.63;;
3527;SDS011;1778;47.966;7.854;2022-10-16T01:51:58;4.87;;;4.77;;
3527;SDS011;1778;47.966;7.854;2022-10-16T01:53:05;4.40;;;4.30;;
3527;SDS011;1778;47.966;7.854;2022-10-16T01:54:10;4.23;;;4.13;;
3527;SDS011;1778;47.966;7.854;2022-10-16T01:55:14;4.13;;;4.03;;
3527;SDS011;1778;47.966;7.854;2022-10-16T01:56:21;4.50;;;4.40;;
3527;SDS011;1778;47.966;7.854;2022-10-16T01:57:25;4.40;;;4.30;;
3527;SDS011;1778;47.966;7.854;2022-10-16T01:58:27;4.23;;;4.13;;
3527;SDS011;1778;47.966;7.854;2022-10-16T01:59:35;4.60;;;4.50;;
3527;SDS011;1778;47.966;7.854;2022-10-16T02:00:42;4.50;;;4.40;;
3527;SDS011;1778;47.966;7.854;2022-10-16T02:01:50;4.23;;;4.13;;
3527;SDS011;1778;47.966;7.854;2022-10-16T02:02:57;4.27;;;4.17;;
3527;SDS011;1778;47.966;7.854;2022-10-16T02:04:00;4.20;;;4.10;;
3527;SDS011;1778;47.966;7.854;2022-10-16T02:06:45;4.37;;;4.27;;
3527;SDS011;1778;47.966;7.854;2022-10-16T02:07:48;4.50;;;4.40;;
3527;SDS011;1778;47.966;7.854;2022-10-16T02:08:50;4.17;;;4.07;;
3527;SDS011;1778;47.966;7.854;2022-10-16T02:09:51;4.30;;;4.20;;
3527;SDS011;1778;47.966;7.854;2022-10-16T02:10:54;4.57;;;4.47;;
3527;SDS011;1778;47.966;7.854;2022-10-16T02:11:57;4.33;;;4.23;;
3527;SDS011;1778;47.966;7.854;2022-10-16T02:13:11;4.50;;;4.40;;
3527;SDS011;1778;47.966;7.854;2022-10-16T02:14:16;4.43;;;4.33;;
3527;SDS011;1778;47.966;7.854;2022-10-16T02:15:19;4.23;;;4.13;;
3527;SDS011;1778;47.966;7.854;2022-10-16T02:16:23;4.53;;;4.43;;
3527;SDS011;1778;47.966;7.854;2022-10-16T02:17:44;4.07;;;3.97;;
3527;SDS011;1778;47.966;7.854;2022-10-16T02:18:46;4.80;;;4.70;;
3527;SDS011;1778;47.966;7.854;2022-10-16T02:19:48;4.53;;;4.43;;
3527;SDS011;1778;47.966;7.854;2022-10-16T02:21:00;4.30;;;4.20;;
3527;SDS011;1778;47.966;7.854;2022-10-16T02:22:25;4.23;;;4.13;;
3527;SDS011;1778;47.966;7.854;2022-10-16T02:25:17;4.10;;;4.10;;
3527;SDS011;1778;47.966;7.854;2022-10-16T02:26:30;4.47;;;4.37;;
3527;SDS011;1778;47.966;7.854;2022-10-16T02:29:02;4.30;;;4.20;;
3527;SDS011;1778;47.966;7.854;2022-10-16T02:30:30;4.60;;;4.50;;
3527;SDS011;1778;47.966;7.854;2022-10-16T02:31:53;4.57;;;4.47;;
3527;SDS011;1778;47.966;7.854;2022-10-16T02:32:59;4.63;;;4.53;;
3527;SDS011;1778;47.966;7.854;2022-10-16T02:34:03;4.40;;;4.30;;
3527;SDS011;1778;47.966;7.854;2022-10-16T02:35:07;4.67;;;4.57;;
3527;SDS011;1778;47.966;7.854;2022-10-16T02:36:09;4.20;;;4.10;;
3527;SDS011;1778;47.966;7.854;2022-10-16T02:37:11;4.57;;;4.47;;
3527;SDS011;1778;47.966;7.854;2022-10-16T02:38:14;4.73;;;4.63;;
3527;SDS011;1778;47.966;7.854;2022-10-16T02:39:17;4.17;;;4.07;;
3527;SDS011;1778;47.966;7.854;2022-10-16T02:40:20;4.63;;;4.53;;
3527;SDS011;1778;47.966;7.854;2022-10-16T02:41:25;4.20;;;4.13;;
3527;SDS011;1778;47.966;7.854;2022-10-16T02:42:28;4.77;;;4.67;;
3527;SDS011;1778;47.966;7.854;2022-10-16T02:43:33;4.57;;;4.47;;
3527;SDS011;1778;47.966;7.854;2022-10-16T02:44:35;4.50;;;4.40;;
3527;SDS011;1778;47.966;7.854;2022-10-16T02:45:36;3.93;;;3.90;;
3527;SDS011;1778;47.966;7.854;2022-10-16T02:46:38;3.80;;;3.80;;
3527;SDS011;1778;47.966;7.854;2022-10-16T02:47:39;4.73;;;4.63;;
3527;SDS011;1778;47.966;7.854;2022-10-16T02:48:41;3.77;;;3.77;;
3527;SDS011;1778;47.966;7.854;2022-10-16T02:49:43;3.67;;;3.67;;
3527;SDS011;1778;47.966;7.854;2022-10-16T02:50:44;4.30;;;4.20;;
3527;SDS011;1778;47.966;7.854;2022-10-16T02:51:46;3.93;;;3.93;;
3527;SDS011;1778;47.966;7.854;2022-10-16T02:52:47;4.27;;;4.17;;
3527;SDS011;1778;47.966;7.854;2022-10-16T02:53:49;3.73;;;3.73;;
3527;SDS011;1778;47.966;7.854;2022-10-16T02:54:50;4.30;;;4.20;;
3527;SDS011;1778;47.966;7.854;2022-10-16T02:55:52;4.20;;;4.10;;
3527;SDS011;1778;47.966;7.854;2022-10-16T02:56:54;3.77;;;3.77;;
3527;SDS011;1778;47.966;7.854;2022-10-16T02:57:55;3.50;;;3.50;;
3527;SDS011;1778;47.966;7.854;2022-10-16T02:58:56;3.50;;;3.50;;
3527;SDS011;1778;47.966;7.854;2022-10-16T02:59:58;3.90;;;3.90;;
3527;SDS011;1778;47.966;7.854;2022-10-16T03:00:59;3.53;;;3.53;;
3527;SDS011;1778;47.966;7.854;2022-10-16T03:02:01;3.40;;;3.40;;
3527;SDS011;1778;47.966;7.854;2022-10-16T03:03:02;3.77;;;3.67;;
3527;SDS011;1778;47.966;7.854;2022-10-16T03:04:04;3.80;;;3.80;;
3527;SDS011;1778;47.966;7.854;2022-10-16T03:05:05;3.53;;;3.53;;
3527;SDS011;1778;47.966;7.854;2022-10-16T03:06:07;4.27;;;4.17;;
3527;SDS011;1778;47.966;7.854;2022-10-16T03:07:09;3.87;;;3.87;;
3527;SDS011;1778;47.966;7.854;2022-10-16T03:08:11;3.90;;;3.87;;
3527;SDS011;1778;47.966;7.854;2022-10-16T03:09:13;3.67;;;3.67;;
3527;SDS011;1778;47.966;7.854;2022-10-16T03:10:14;3.83;;;3.83;;
3527;SDS011;1778;47.966;7.854;2022-10-16T03:11:16;3.93;;;3.93;;
3527;SDS011;1778;47.966;7.854;2022-10-16T03:12:18;4.00;;;4.00;;
3527;SDS011;1778;47.966;7.854;2022-10-16T03:13:19;4.20;;;4.10;;
3527;SDS011;1778;47.966;7.854;2022-10-16T03:14:21;3.87;;;3.87;;
3527;SDS011;1778;47.966;7.854;2022-10-16T03:15:23;3.70;;;3.70;;
3527;SDS011;1778;47.966;7.854;2022-10-16T03:16:24;3.97;;;3.97;;
3527;SDS011;1778;47.966;7.854;2022-10-16T03:17:26;4.40;;;4.30;;
3527;SDS011;1778;47.966;7.854;2022-10-16T03:18:28;3.87;;;3.87;;
3527;SDS011;1778;47.966;7.854;2022-10-16T03:19:29;3.87;;;3.87;;
3527;SDS011;1778;47.966;7.854;2022-10-16T03:20:31;3.83;;;3.83;;
3527;SDS011;1778;47.966;7.854;2022-10-16T03:21:32;3.70;;;3.70;;
3527;SDS011;1778;47.966;7.854;2022-10-16T03:22:34;3.93;;;3.93;;
3527;SDS011;1778;47.966;7.854;2022-10-16T03:23:35;4.20;;;4.10;;
3527;SDS011;1778;47.966;7.854;2022-10-16T03:24:37;3.83;;;3.83;;
3527;SDS011;1778;47.966;7.854;2022-10-16T03:25:39;3.90;;;3.90;;
3527;SDS011;1778;47.966;7.854;2022-10-16T03:26:41;3.93;;;3.93;;
3527;SDS011;1778;47.966;7.854;2022-10-16T03:27:42;3.87;;;3.87;;
3527;SDS011;1778;47.966;7.854;2022-10-16T03:28:44;4.57;;;4.47;;
3527;SDS011;1778;47.966;7.854;2022-10-16T03:29:45;3.67;;;3.67;;
3527;SDS011;1778;47.966;7.854;2022-10-16T03:30:47;3.83;;;3.83;;
3527;SDS011;1778;47.966;7.854;2022-10-16T03:31:49;3.90;;;3.90;;
3527;SDS011;1778;47.966;7.854;2022-10-16T03:32:51;3.90;;;3.90;;
3527;SDS011;1778;47.966;7.854;2022-10-16T03:33:55;4.00;;;4.00;;
3527;SDS011;1778;47.966;7.854;2022-10-16T03:34:56;3.67;;;3.67;;
3527;SDS011;1778;47.966;7.854;2022-10-16T03:35:58;3.60;;;3.60;;
3527;SDS011;1778;47.966;7.854;2022-10-16T03:36:59;3.40;;;3.40;;
3527;SDS011;1778;47.966;7.854;2022-10-16T03:38:01;3.73;;;3.73;;
3527;SDS011;1778;47.966;7.854;2022-10-16T03:39:02;3.73;;;3.73;;
3527;SDS011;1778;47.966;7.854;2022-10-16T03:40:04;3.53;;;3.53;;
3527;SDS011;1778;47.966;7.854;2022-10-16T03:41:06;3.63;;;3.63;;
3527;SDS011;1778;47.966;7.854;2022-10-16T03:42:08;3.63;;;3.63;;
3527;SDS011;1778;47.966;7.854;2022-10-16T03:43:10;3.67;;;3.67;;
3527;SDS011;1778;47.966;7.854;2022-10-16T03:44:11;3.80;;;3.80;;
3527;SDS011;1778;47.966;7.854;2022-10-16T03:45:13;3.83;;;3.83;;
3527;SDS011;1778;47.966;7.854;2022-10-16T03:46:15;3.47;;;3.47;;
3527;SDS011;1778;47.966;7.854;2022-10-16T03:47:16;2.70;;;2.70;;
3527;SDS011;1778;47.966;7.854;2022-10-16T03:48:22;3.70;;;3.70;;
3527;SDS011;1778;47.966;7.854;2022-10-16T03:49:23;3.43;;;3.43;;
3527;SDS011;1778;47.966;7.854;2022-10-16T03:50:25;5.97;;;5.87;;
3527;SDS011;1778;47.966;7.854;2022-10-16T03:51:26;3.37;;;3.37;;
3527;SDS011;1778;47.966;7.854;2022-10-16T03:52:28;3.70;;;3.70;;
3527;SDS011;1778;47.966;7.854;2022-10-16T03:53:29;3.50;;;3.50;;
3527;SDS011;1778;47.966;7.854;2022-10-16T03:54:31;3.87;;;3.87;;
3527;SDS011;1778;47.966;7.854;2022-10-16T03:55:32;4.20;;;4.10;;
3527;SDS011;1778;47.966;7.854;2022-10-16T03:56:34;4.20;;;4.10;;
3527;SDS011;1778;47.966;7.854;2022-10-16T03:57:35;3.73;;;3.73;;
3527;SDS011;1778;47.966;7.854;2022-10-16T03:58:36;3.77;;;3.77;;
3527;SDS011;1778;47.966;7.854;2022-10-16T03:59:38;3.63;;;3.63;;
3527;SDS011;1778;47.966;7.854;2022-10-16T04:00:43;3.67;;;3.67;;
3527;SDS011;1778;47.966;7.854;2022-10-16T04:01:45;3.63;;;3.63;;
3527;SDS011;1778;47.966;7.854;2022-10-16T04:02:46;3.77;;;3.77;;
3527;SDS011;1778;47.966;7.854;2022-10-16T04:03:48;3.70;;;3.70;;
3527;SDS011;1778;47.966;7.854;2022-10-16T04:04:49;3.70;;;3.70;;
3527;SDS011;1778;47.966;7.854;2022-10-16T04:05:50;3.63;;;3.63;;
3527;SDS011;1778;47.966;7.854;2022-10-16T04:06:52;3.80;;;3.80;;
3527;SDS011;1778;47.966;7.854;2022-10-16T04:07:54;3.70;;;3.70;;
3527;SDS011;1778;47.966;7.854;2022-10-16T04:08:55;4.00;;;3.97;;
3527;SDS011;1778;47.966;7.854;2022-10-16T04:09:57;3.93;;;3.93;;
3527;SDS011;1778;47.966;7.854;2022-10-16T04:11:00;4.17;;;4.07;;
3527;SDS011;1778;47.966;7.854;2022-10-16T04:12:02;3.87;;;3.87;;
3527;SDS011;1778;47.966;7.854;2022-10-16T04:13:03;3.83;;;3.83;;
3527;SDS011;1778;47.966;7.854;2022-10-16T04:14:05;3.93;;;3.93;;
3527;SDS011;1778;47.966;7.854;2022-10-16T04:15:06;3.87;;;3.87;;
3527;SDS011;1778;47.966;7.854;2022-10-16T04:16:08;3.40;;;3.40;;
3527;SDS011;1778;47.966;7.854;2022-10-16T04:17:10;3.97;;;3.97;;
3527;SDS011;1778;47.966;7.854;2022-10-16T04:18:12;3.47;;;3.47;;
3527;SDS011;1778;47.966;7.854;2022-10-16T04:19:13;3.73;;;3.73;;
3527;SDS011;1778;47.966;7.854;2022-10-16T04:20:15;3.67;;;3.67;;
3527;SDS011;1778;47.966;7.854;2022-10-16T04:21:17;3.97;;;3.97;;
3527;SDS011;1778;47.966;7.854;2022-10-16T04:22:18;3.73;;;3.73;;
3527;SDS011;1778;47.966;7.854;2022-10-16T04:23:20;3.67;;;3.67;;
3527;SDS011;1778;47.966;7.854;2022-10-16T04:24:23;3.67;;;3.67;;
3527;SDS011;1778;47.966;7.854;2022-10-16T04:25:25;3.70;;;3.70;;
3527;SDS011;1778;47.966;7.854;2022-10-16T04:26:26;3.80;;;3.80;;
3527;SDS011;1778;47.966;7.854;2022-10-16T04:27:28;3.60;;;3.60;;
3527;SDS011;1778;47.966;7.854;2022-10-16T04:28:32;3.60;;;3.60;;
3527;SDS011;1778;47.966;7.854;2022-10-16T04:29:33;3.50;;;3.50;;
3527;SDS011;1778;47.966;7.854;2022-10-16T04:30:37;3.53;;;3.53;;
3527;SDS011;1778;47.966;7.854;2022-10-16T04:31:39;3.60;;;3.60;;
3527;SDS011;1778;47.966;7.854;2022-10-16T04:32:41;3.77;;;3.77;;
3527;SDS011;1778;47.966;7.854;2022-10-16T04:33:42;3.77;;;3.77;;
3527;SDS011;1778;47.966;7.854;2022-10-16T04:34:44;3.77;;;3.77;;
3527;SDS011;1778;47.966;7.854;2022-10-16T04:35:46;3.70;;;3.70;;
3527;SDS011;1778;47.966;7.854;2022-10-16T04:36:47;3.97;;;3.97;;
3527;SDS011;1778;47.966;7.854;2022-10-16T04:37:52;3.80;;;3.80;;
3527;SDS011;1778;47.966;7.854;2022-10-16T04:38:53;3.57;;;3.57;;
3527;SDS011;1778;47.966;7.854;2022-10-16T04:39:55;3.87;;;3.87;;
3527;SDS011;1778;47.966;7.854;2022-10-16T04:40:56;3.63;;;3.63;;
3527;SDS011;1778;47.966;7.854;2022-10-16T04:41:58;3.30;;;3.30;;
3527;SDS011;1778;47.966;7.854;2022-10-16T04:42:59;3.20;;;3.20;;
3527;SDS011;1778;47.966;7.854;2022-10-16T04:44:00;3.37;;;3.37;;
3527;SDS011;1778;47.966;7.854;2022-10-16T04:45:03;3.53;;;3.53;;
3527;SDS011;1778;47.966;7.854;2022-10-16T04:46:05;3.43;;;3.43;;
3527;SDS011;1778;47.966;7.854;2022-10-16T04:47:07;3.37;;;3.37;;
3527;SDS011;1778;47.966;7.854;2022-10-16T04:48:09;3.07;;;3.07;;
3527;SDS011;1778;47.966;7.854;2022-10-16T04:49:10;3.43;;;3.43;;
3527;SDS011;1778;47.966;7.854;2022-10-16T04:50:11;3.30;;;3.30;;
3527;SDS011;1778;47.966;7.854;2022-10-16T04:51:13;3.43;;;3.43;;
3527;SDS011;1778;47.966;7.854;2022-10-16T04:52:14;3.50;;;3.50;;
3527;SDS011;1778;47.966;7.854;2022-10-16T04:53:16;3.50;;;3.50;;
3527;SDS011;1778;47.966;7.854;2022-10-16T04:54:18;3.60;;;3.60;;
3527;SDS011;1778;47.966;7.854;2022-10-16T04:55:20;3.47;;;3.47;;
3527;SDS011;1778;47.966;7.854;2022-10-16T04:56:21;3.33;;;3.33;;
3527;SDS011;1778;47.966;7.854;2022-10-16T04:57:23;3.30;;;3.30;;
3527;SDS011;1778;47.966;7.854;2022-10-16T04:58:25;3.67;;;3.67;;
3527;SDS011;1778;47.966;7.854;2022-10-16T04:59:27;3.40;;;3.40;;
3527;SDS011;1778;47.966;7.854;2022-10-16T05:00:28;3.63;;;3.63;;
3527;SDS011;1778;47.966;7.854;2022-10-16T05:01:30;3.37;;;3.37;;
3527;SDS011;1778;47.966;7.854;2022-10-16T05:02:32;3.67;;;3.67;;
3527;SDS011;1778;47.966;7.854;2022-10-16T05:03:33;3.40;;;3.40;;
3527;SDS011;1778;47.966;7.854;2022-10-16T05:04:35;3.80;;;3.80;;
3527;SDS011;1778;47.966;7.854;2022-10-16T05:05:36;3.30;;;3.30;;
3527;SDS011;1778;47.966;7.854;2022-10-16T05:06:44;3.53;;;3.53;;
3527;SDS011;1778;47.966;7.854;2022-10-16T05:07:48;3.40;;;3.40;;
3527;SDS011;1778;47.966;7.854;2022-10-16T05:08:50;3.50;;;3.50;;
3527;SDS011;1778;47.966;7.854;2022-10-16T05:09:52;3.70;;;3.70;;
3527;SDS011;1778;47.966;7.854;2022-10-16T05:10:54;3.60;;;3.60;;
3527;SDS011;1778;47.966;7.854;2022-10-16T05:11:56;3.30;;;3.30;;
3527;SDS011;1778;47.966;7.854;2022-10-16T05:12:57;3.40;;;3.40;;
3527;SDS011;1778;47.966;7.854;2022-10-16T05:13:59;3.50;;;3.50;;
3527;SDS011;1778;47.966;7.854;2022-10-16T05:15:01;3.53;;;3.53;;
3527;SDS011;1778;47.966;7.854;2022-10-16T05:16:04;3.27;;;3.27;;
3527;SDS011;1778;47.966;7.854;2022-10-16T05:17:05;3.30;;;3.30;;
3527;SDS011;1778;47.966;7.854;2022-10-16T05:18:08;3.47;;;3.47;;
3527;SDS011;1778;47.966;7.854;2022-10-16T05:19:09;3.27;;;3.27;;
3527;SDS011;1778;47.966;7.854;2022-10-16T05:20:28;3.10;;;3.10;;
3527;SDS011;1778;47.966;7.854;2022-10-16T05:21:30;3.80;;;3.80;;
3527;SDS011;1778;47.966;7.854;2022-10-16T05:22:32;3.93;;;3.93;;
3527;SDS011;1778;47.966;7.854;2022-10-16T05:23:33;4.07;;;4.07;;
3527;SDS011;1778;47.966;7.854;2022-10-16T05:24:35;3.37;;;3.37;;
3527;SDS011;1778;47.966;7.854;2022-10-16T05:25:37;3.20;;;3.20;;
3527;SDS011;1778;47.966;7.854;2022-10-16T05:26:38;3.60;;;3.60;;
3527;SDS011;1778;47.966;7.854;2022-10-16T05:27:39;3.47;;;3.47;;
3527;SDS011;1778;47.966;7.854;2022-10-16T05:28:41;3.70;;;3.70;;
3527;SDS011;1778;47.966;7.854;2022-10-16T05:29:42;3.30;;;3.30;;
3527;SDS011;1778;47.966;7.854;2022-10-16T05:30:48;3.47;;;3.47;;
3527;SDS011;1778;47.966;7.854;2022-10-16T05:31:50;3.40;;;3.40;;
3527;SDS011;1778;47.966;7.854;2022-10-16T05:32:53;3.33;;;3.33;;
3527;SDS011;1778;47.966;7.854;2022-10-16T05:33:58;3.30;;;3.30;;
3527;SDS011;1778;47.966;7.854;2022-10-16T05:35:00;3.60;;;3.60;;
3527;SDS011;1778;47.966;7.854;2022-10-16T05:36:05;3.20;;;3.20;;
3527;SDS011;1778;47.966;7.854;2022-10-16T05:37:08;3.23;;;3.23;;
3527;SDS011;1778;47.966;7.854;2022-10-16T05:38:10;3.43;;;3.43;;
3527;SDS011;1778;47.966;7.854;2022-10-16T05:39:11;3.30;;;3.30;;
3527;SDS011;1778;47.966;7.854;2022-10-16T05:40:16;3.33;;;3.33;;
3527;SDS011;1778;47.966;7.854;2022-10-16T05:41:18;3.33;;;3.33;;
3527;SDS011;1778;47.966;7.854;2022-10-16T05:42:22;3.20;;;3.20;;
3527;SDS011;1778;47.966;7.854;2022-10-16T05:43:23;3.33;;;3.33;;
3527;SDS011;1778;47.966;7.854;2022-10-16T05:44:25;3.20;;;3.20;;
3527;SDS011;1778;47.966;7.854;2022-10-16T05:45:26;3.10;;;3.10;;
3527;SDS011;1778;47.966;7.854;2022-10-16T05:46:28;3.27;;;3.27;;
3527;SDS011;1778;47.966;7.854;2022-10-16T05:47:29;3.10;;;3.10;;
3527;SDS011;1778;47.966;7.854;2022-10-16T05:48:31;3.33;;;3.33;;
3527;SDS011;1778;47.966;7.854;2022-10-16T05:49:33;3.57;;;3.57;;
3527;SDS011;1778;47.966;7.854;2022-10-16T05:50:40;2.97;;;2.97;;
3527;SDS011;1778;47.966;7.854;2022-10-16T05:51:41;3.03;;;3.03;;
3527;SDS011;1778;47.966;7.854;2022-10-16T05:52:43;3.20;;;3.20;;
3527;SDS011;1778;47.966;7.854;2022-10-16T05:53:45;3.13;;;3.13;;
3527;SDS011;1778;47.966;7.854;2022-10-16T05:54:46;3.30;;;3.30;;
3527;SDS011;1778;47.966;7.854;2022-10-16T05:55:51;3.17;;;3.17;;
3527;SDS011;1778;47.966;7.854;2022-10-16T05:56:54;3.33;;;3.33;;
3527;SDS011;1778;47.966;7.854;2022-10-16T05:57:55;3.10;;;3.10;;
3527;SDS011;1778;47.966;7.854;2022-10-16T05:58:56;3.23;;;3.23;;
3527;SDS011;1778;47.966;7.854;2022-10-16T05:59:58;3.10;;;3.10;;
3527;SDS011;1778;47.966;7.854;2022-10-16T06:01:00;3.03;;;3.03;;
3527;SDS011;1778;47.966;7.854;2022-10-16T06:02:04;2.93;;;2.93;;
3527;SDS011;1778;47.966;7.854;2022-10-16T06:03:06;2.67;;;2.67;;
3527;SDS011;1778;47.966;7.854;2022-10-16T06:04:08;3.20;;;3.20;;
3527;SDS011;1778;47.966;7.854;2022-10-16T06:05:11;2.87;;;2.87;;
3527;SDS011;1778;47.966;7.854;2022-10-16T06:06:14;2.83;;;2.83;;
3527;SDS011;1778;47.966;7.854;2022-10-16T06:07:17;3.37;;;3.37;;
3527;SDS011;1778;47.966;7.854;2022-10-16T06:08:19;3.10;;;3.10;;
3527;SDS011;1778;47.966;7.854;2022-10-16T06:09:21;2.90;;;2.90;;
3527;SDS011;1778;47.966;7.854;2022-10-16T06:10:23;3.13;;;3.13;;
3527;SDS011;1778;47.966;7.854;2022-10-16T06:11:25;3.00;;;3.00;;
3527;SDS011;1778;47.966;7.854;2022-10-16T06:12:29;3.00;;;3.00;;
3527;SDS011;1778;47.966;7.854;2022-10-16T06:13:30;3.10;;;3.10;;
3527;SDS011;1778;47.966;7.854;2022-10-16T06:14:32;2.97;;;2.97;;
3527;SDS011;1778;47.966;7.854;2022-10-16T06:15:34;2.70;;;2.70;;
3527;SDS011;1778;47.966;7.854;2022-10-16T06:16:35;3.00;;;3.00;;
3527;SDS011;1778;47.966;7.854;2022-10-16T06:17:37;2.97;;;2.97;;
3527;SDS011;1778;47.966;7.854;2022-10-16T06:18:39;2.90;;;2.90;;
3527;SDS011;1778;47.966;7.854;2022-10-16T06:19:40;2.90;;;2.90;;
3527;SDS011;1778;47.966;7.854;2022-10-16T06:20:42;2.83;;;2.83;;
3527;SDS011;1778;47.966;7.854;2022-10-16T06:21:43;2.80;;;2.80;;
3527;SDS011;1778;47.966;7.854;2022-10-16T06:22:45;3.00;;;3.00;;
3527;SDS011;1778;47.966;7.854;2022-10-16T06:23:47;2.90;;;2.90;;
3527;SDS011;1778;47.966;7.854;2022-10-16T06:24:49;2.80;;;2.80;;
3527;SDS011;1778;47.966;7.854;2022-10-16T06:25:50;2.90;;;2.90;;
3527;SDS011;1778;47.966;7.854;2022-10-16T06:26:52;3.23;;;3.23;;
3527;SDS011;1778;47.966;7.854;2022-10-16T06:27:54;2.60;;;2.60;;
3527;SDS011;1778;47.966;7.854;2022-10-16T06:28:56;3.23;;;3.23;;
3527;SDS011;1778;47.966;7.854;2022-10-16T06:29:58;2.90;;;2.90;;
3527;SDS011;1778;47.966;7.854;2022-10-16T06:31:00;2.73;;;2.73;;
3527;SDS011;1778;47.966;7.854;2022-10-16T06:32:08;2.80;;;2.80;;
3527;SDS011;1778;47.966;7.854;2022-10-16T06:33:11;2.60;;;2.60;;
3527;SDS011;1778;47.966;7.854;2022-10-16T06:34:12;2.90;;;2.90;;
3527;SDS011;1778;47.966;7.854;2022-10-16T06:35:14;2.60;;;2.60;;
3527;SDS011;1778;47.966;7.854;2022-10-16T06:36:16;3.00;;;3.00;;
3527;SDS011;1778;47.966;7.854;2022-10-16T06:37:18;2.67;;;2.67;;
3527;SDS011;1778;47.966;7.854;2022-10-16T06:38:20;2.70;;;2.70;;
3527;SDS011;1778;47.966;7.854;2022-10-16T06:39:21;3.13;;;3.13;;
3527;SDS011;1778;47.966;7.854;2022-10-16T06:40:23;2.70;;;2.70;;
3527;SDS011;1778;47.966;7.854;2022-10-16T06:41:24;2.27;;;2.27;;
3527;SDS011;1778;47.966;7.854;2022-10-16T06:42:26;2.50;;;2.50;;
3527;SDS011;1778;47.966;7.854;2022-10-16T06:43:30;2.30;;;2.30;;
3527;SDS011;1778;47.966;7.854;2022-10-16T06:44:38;2.57;;;2.57;;
3527;SDS011;1778;47.966;7.854;2022-10-16T06:45:40;2.60;;;2.60;;
3527;SDS011;1778;47.966;7.854;2022-10-16T06:46:41;2.60;;;2.60;;
3527;SDS011;1778;47.966;7.854;2022-10-16T06:47:43;2.57;;;2.57;;
3527;SDS011;1778;47.966;7.854;2022-10-16T06:48:44;2.23;;;2.23;;
3527;SDS011;1778;47.966;7.854;2022-10-16T06:49:46;2.33;;;2.33;;
3527;SDS011;1778;47.966;7.854;2022-10-16T06:51:04;2.83;;;2.83;;
3527;SDS011;1778;47.966;7.854;2022-10-16T06:52:10;2.80;;;2.80;;
3527;SDS011;1778;47.966;7.854;2022-10-16T06:53:12;2.47;;;2.47;;
3527;SDS011;1778;47.966;7.854;2022-10-16T06:54:14;2.47;;;2.47;;
3527;SDS011;1778;47.966;7.854;2022-10-16T06:55:16;2.83;;;2.83;;